Time;durP1;ratioP1;P1;durP2;ratioP2;P2;SDS_P1;SDS_P2;PMS_P1;PMS_P2;Temp;Humidity;BMP_temperature;BMP_pressure;BME280_temperature;BME280_humidity;BME280_pressure;Samples;Min_cycle;Max_cycle;Signal;HPM_P1;HPM_P2
2024/03/02 00:01:07;;;;;;;26.10;13.23;;;5.40;99.90;;;;;;5068185;28;20966;-69
2024/03/02 00:03:37;;;;;;;21.00;13.03;;;5.60;99.90;;;;;;5068032;28;20470;-69
2024/03/02 00:06:05;;;;;;;22.90;13.50;;;5.50;99.90;;;;;;5067388;28;20461;-69
2024/03/02 00:08:33;;;;;;;19.97;12.33;;;5.40;99.90;;;;;;5067977;28;20916;-70
2024/03/02 00:11:03;;;;;;;21.03;12.60;;;5.40;99.90;;;;;;5067592;28;20790;-70
2024/03/02 00:13:33;;;;;;;22.90;12.67;;;5.30;99.90;;;;;;5064496;28;20540;-71
2024/03/02 00:16:04;;;;;;;19.77;12.17;;;5.30;99.90;;;;;;5052449;28;20903;-69
2024/03/02 00:18:34;;;;;;;21.40;13.17;;;5.40;99.90;;;;;;5059518;28;20486;-69
2024/03/02 00:21:04;;;;;;;21.97;13.23;;;5.40;99.90;;;;;;5067411;28;20458;-70
2024/03/02 00:23:32;;;;;;;22.03;13.40;;;5.40;99.90;;;;;;5067815;28;20451;-69
2024/03/02 00:26:01;;;;;;;20.73;13.47;;;5.40;99.90;;;;;;5067873;28;20537;-69
2024/03/02 00:28:33;;;;;;;21.90;13.00;;;5.40;99.90;;;;;;5067274;28;20490;-70
2024/03/02 00:31:06;;;;;;;18.73;12.30;;;5.60;99.90;;;;;;5067748;28;20472;-70
2024/03/02 00:33:35;;;;;;;21.87;12.83;;;5.50;99.90;;;;;;5066713;28;20448;-70
2024/03/02 00:36:05;;;;;;;21.60;12.20;;;5.50;99.90;;;;;;5057938;28;20481;-69
2024/03/02 00:38:33;;;;;;;21.43;12.57;;;5.40;99.90;;;;;;5065906;28;20841;-69
2024/03/02 00:41:06;;;;;;;22.40;12.90;;;5.40;99.90;;;;;;5066055;28;20449;-70
2024/03/02 00:43:44;;;;;;;21.03;11.37;;;5.30;99.90;;;;;;5066307;28;20443;-69
2024/03/02 00:46:18;;;;;;;21.30;12.43;;;5.20;99.90;;;;;;5066236;28;20448;-69
2024/03/02 00:48:54;;;;;;;21.20;11.63;;;5.10;99.90;;;;;;5061327;28;20462;-69
2024/03/02 00:51:23;;;;;;;19.53;11.53;;;5.00;99.90;;;;;;5063966;28;20461;-70
2024/03/02 00:53:55;;;;;;;20.97;11.40;;;4.90;99.90;;;;;;5060018;28;20552;-70
2024/03/02 00:56:23;;;;;;;21.57;11.97;;;4.90;99.90;;;;;;5064771;28;20478;-69
2024/03/02 00:58:52;;;;;;;27.53;14.67;;;4.80;99.90;;;;;;5066602;28;20496;-70
2024/03/02 01:01:22;;;;;;;23.90;13.37;;;4.90;99.90;;;;;;5066320;28;20740;-69
2024/03/02 01:03:50;;;;;;;24.30;12.53;;;4.90;99.90;;;;;;5065648;28;20482;-69
2024/03/02 01:06:19;;;;;;;22.60;12.13;;;4.90;99.90;;;;;;5057229;28;20456;-69
2024/03/02 01:08:50;;;;;;;22.73;12.90;;;4.90;99.90;;;;;;5063831;28;20474;-69
2024/03/02 01:11:21;;;;;;;20.70;12.07;;;5.00;99.90;;;;;;5065799;28;20445;-70
2024/03/02 01:13:50;;;;;;;22.73;12.60;;;5.00;99.90;;;;;;5066554;28;21179;-70
2024/03/02 01:16:18;;;;;;;21.23;11.80;;;5.00;99.90;;;;;;5067954;28;20947;-71
2024/03/02 01:18:47;;;;;;;22.70;12.40;;;4.90;99.90;;;;;;5068613;28;20482;-71
2024/03/02 01:21:16;;;;;;;23.73;12.00;;;4.90;99.90;;;;;;5068465;28;20897;-71
2024/03/02 01:23:44;;;;;;;22.30;12.37;;;4.90;99.90;;;;;;5068115;28;20458;-71
2024/03/02 01:26:12;;;;;;;26.07;13.73;;;5.00;99.90;;;;;;5068705;28;20538;-71
2024/03/02 01:28:40;;;;;;;26.00;12.57;;;5.00;99.90;;;;;;5068436;28;20560;-72
2024/03/02 01:31:08;;;;;;;24.03;12.13;;;4.90;99.90;;;;;;5068641;28;20446;-71
2024/03/02 01:33:36;;;;;;;19.80;10.17;;;4.80;99.90;;;;;;5065543;28;20450;-71
2024/03/02 01:36:08;;;;;;;22.47;13.27;;;4.80;99.90;;;;;;5048877;28;20465;-71
2024/03/02 01:38:35;;;;;;;19.07;11.10;;;4.70;99.90;;;;;;5063507;28;21282;-70
2024/03/02 01:41:04;;;;;;;23.23;13.30;;;4.70;99.90;;;;;;5067653;28;20688;-70
2024/03/02 01:43:32;;;;;;;20.13;11.47;;;4.50;99.90;;;;;;5068379;28;20443;-70
2024/03/02 01:46:00;;;;;;;20.50;11.90;;;4.50;99.90;;;;;;5068510;28;20451;-70
2024/03/02 01:48:28;;;;;;;21.90;11.40;;;4.40;99.90;;;;;;5068003;28;20466;-71
2024/03/02 01:50:56;;;;;;;23.57;13.00;;;4.30;99.90;;;;;;5068514;28;20845;-71
2024/03/02 01:53:25;;;;;;;20.83;11.93;;;4.30;99.90;;;;;;5067969;28;20503;-71
2024/03/02 01:55:53;;;;;;;21.80;10.73;;;4.30;99.90;;;;;;5061503;28;20619;-70
2024/03/02 01:58:21;;;;;;;22.30;11.67;;;4.20;99.90;;;;;;5067962;28;20497;-71
2024/03/02 02:00:50;;;;;;;19.30;10.77;;;4.20;99.90;;;;;;5068030;28;20537;-71
2024/03/02 02:03:18;;;;;;;21.03;10.83;;;4.20;99.90;;;;;;5067716;28;20443;-70
2024/03/02 02:05:47;;;;;;;21.40;11.90;;;4.10;99.90;;;;;;5067765;28;21185;-71
2024/03/02 02:08:15;;;;;;;19.33;11.77;;;4.00;99.90;;;;;;5066616;28;20468;-70
2024/03/02 02:10:45;;;;;;;17.77;9.80;;;3.90;99.90;;;;;;5047798;28;20530;-70
2024/03/02 02:13:13;;;;;;;19.30;10.50;;;3.90;99.90;;;;;;5062269;28;20548;-71
2024/03/02 02:15:41;;;;;;;20.13;10.20;;;3.90;99.90;;;;;;5066885;28;21007;-71
2024/03/02 02:18:09;;;;;;;19.50;11.07;;;3.90;99.90;;;;;;5051738;28;21166;-71
2024/03/02 02:20:37;;;;;;;18.73;10.00;;;3.80;99.90;;;;;;5047502;28;20898;-71
2024/03/02 02:23:07;;;;;;;18.27;11.40;;;3.80;99.90;;;;;;5055027;28;20449;-71
2024/03/02 02:25:35;;;;;;;20.57;10.93;;;3.80;99.90;;;;;;5047867;28;20469;-71
2024/03/02 02:28:04;;;;;;;21.13;11.20;;;3.80;99.90;;;;;;5051627;28;20467;-72
2024/03/02 02:30:33;;;;;;;22.40;11.33;;;3.70;99.90;;;;;;5063052;28;20452;-72
2024/03/02 02:33:01;;;;;;;23.83;11.77;;;3.70;99.90;;;;;;5067237;28;20448;-72
2024/03/02 02:35:30;;;;;;;23.03;11.77;;;3.80;99.90;;;;;;5067190;28;20438;-72
2024/03/02 02:37:58;;;;;;;19.97;12.20;;;3.80;99.90;;;;;;5067337;28;20497;-71
2024/03/02 02:40:30;;;;;;;20.90;11.50;;;3.70;99.90;;;;;;5066684;28;20456;-72
2024/03/02 02:42:58;;;;;;;23.30;12.70;;;3.70;99.90;;;;;;5066854;28;20439;-72
2024/03/02 02:45:27;;;;;;;20.83;12.03;;;3.70;99.90;;;;;;5067276;28;20993;-72
2024/03/02 02:47:55;;;;;;;23.53;12.50;;;3.60;99.90;;;;;;5066859;28;20941;-72
2024/03/02 02:50:23;;;;;;;22.97;12.10;;;3.60;99.90;;;;;;5049531;28;20523;-71
2024/03/02 02:52:50;;;;;;;22.00;12.40;;;3.60;99.90;;;;;;5052399;28;21031;-71
2024/03/02 02:55:18;;;;;;;22.50;11.70;;;3.70;99.90;;;;;;5047415;28;20450;-71
2024/03/02 02:57:48;;;;;;;23.13;13.13;;;3.70;99.90;;;;;;5047048;28;20518;-72
2024/03/02 03:00:18;;;;;;;24.20;13.30;;;3.60;99.90;;;;;;5046795;28;20847;-72
2024/03/02 03:02:48;;;;;;;25.83;14.23;;;3.60;99.90;;;;;;5047203;28;21040;-72
2024/03/02 03:05:18;;;;;;;23.53;12.53;;;3.90;99.90;;;;;;5046852;28;20445;-71
2024/03/02 03:07:49;;;;;;;24.57;13.73;;;4.00;99.90;;;;;;5047622;28;20475;-71
2024/03/02 03:10:18;;;;;;;23.47;13.23;;;3.90;99.90;;;;;;5046733;28;20484;-71
2024/03/02 03:12:47;;;;;;;22.47;11.63;;;3.70;99.90;;;;;;5046668;28;20461;-71
2024/03/02 03:15:16;;;;;;;23.53;12.53;;;3.60;99.90;;;;;;5048883;28;20452;-71
2024/03/02 03:17:46;;;;;;;24.30;11.80;;;3.50;99.90;;;;;;5059032;28;20486;-72
2024/03/02 03:20:15;;;;;;;25.17;14.47;;;3.30;99.90;;;;;;5066620;28;20446;-72
2024/03/02 03:22:43;;;;;;;20.33;11.70;;;3.30;99.90;;;;;;5066513;28;20501;-72
2024/03/02 03:25:11;;;;;;;22.90;11.27;;;3.30;99.90;;;;;;5050755;28;20514;-71
2024/03/02 03:27:39;;;;;;;25.70;12.13;;;3.20;99.90;;;;;;5046542;28;20455;-72
2024/03/02 03:30:09;;;;;;;21.80;12.10;;;3.10;99.90;;;;;;5057149;28;20447;-72
2024/03/02 03:32:37;;;;;;;21.87;11.93;;;3.00;99.90;;;;;;5066457;28;20508;-72
2024/03/02 03:35:06;;;;;;;24.80;11.80;;;3.00;99.90;;;;;;5066844;28;20457;-71
2024/03/02 03:37:34;;;;;;;24.90;13.73;;;3.10;99.90;;;;;;5066648;28;20466;-71
2024/03/02 03:40:07;;;;;;;20.90;11.93;;;3.30;99.90;;;;;;5059949;28;20487;-71
2024/03/02 03:42:35;;;;;;;22.07;11.70;;;3.30;99.90;;;;;;5046315;28;20449;-71
2024/03/02 03:45:03;;;;;;;26.07;13.40;;;3.20;99.90;;;;;;5066281;28;20457;-71
2024/03/02 03:47:34;;;;;;;24.83;11.57;;;3.10;99.90;;;;;;5066218;28;20520;-71
2024/03/02 03:50:04;;;;;;;21.40;10.60;;;3.00;99.90;;;;;;5052035;28;20913;-71
2024/03/02 03:52:32;;;;;;;20.43;11.37;;;2.90;99.90;;;;;;5046221;28;20993;-71
2024/03/02 03:55:00;;;;;;;21.17;12.17;;;2.80;99.90;;;;;;5060412;28;20461;-71
2024/03/02 03:57:28;;;;;;;18.63;10.80;;;2.70;99.90;;;;;;5066273;28;20481;-71
2024/03/02 03:59:57;;;;;;;22.63;12.37;;;2.70;99.90;;;;;;5069161;28;20439;-70
2024/03/02 04:02:25;;;;;;;27.83;12.37;;;2.80;99.90;;;;;;5068794;28;20855;-70
2024/03/02 04:04:54;;;;;;;30.60;13.70;;;2.90;99.90;;;;;;5068485;28;20823;-71
2024/03/02 04:07:22;;;;;;;26.30;12.63;;;2.90;99.90;;;;;;5066498;28;20498;-73
2024/03/02 04:09:50;;;;;;;22.30;12.33;;;2.90;99.90;;;;;;5066880;28;20457;-73
2024/03/02 04:12:18;;;;;;;21.77;11.77;;;2.90;99.90;;;;;;5066589;28;20509;-73
2024/03/02 04:14:46;;;;;;;23.03;11.33;;;2.90;99.90;;;;;;5067372;28;20443;-73
2024/03/02 04:17:14;;;;;;;25.67;11.30;;;2.80;99.90;;;;;;5066576;28;20462;-72
2024/03/02 04:19:42;;;;;;;24.80;12.23;;;2.80;99.90;;;;;;5065981;28;20570;-72
2024/03/02 04:22:11;;;;;;;23.30;13.00;;;2.60;99.90;;;;;;5066247;28;20461;-72
2024/03/02 04:24:51;;;;;;;19.67;11.23;;;2.70;99.90;;;;;;5066027;28;20438;-72
2024/03/02 04:27:19;;;;;;;24.00;12.17;;;2.70;99.90;;;;;;5063054;28;20814;-72
2024/03/02 04:29:47;;;;;;;24.70;11.37;;;2.80;99.90;;;;;;5046264;28;20452;-72
2024/03/02 04:32:15;;;;;;;21.93;10.77;;;2.70;99.90;;;;;;5046098;28;21215;-72
2024/03/02 04:34:43;;;;;;;22.03;10.70;;;2.80;99.90;;;;;;5046067;28;20486;-71
2024/03/02 04:37:14;;;;;;;20.03;11.20;;;2.90;99.90;;;;;;5045991;28;20479;-72
2024/03/02 04:39:42;;;;;;;20.83;11.70;;;2.90;99.90;;;;;;5050259;28;20487;-72
2024/03/02 04:42:10;;;;;;;20.70;12.60;;;2.90;99.90;;;;;;5049606;28;20451;-71
2024/03/02 04:44:38;;;;;;;21.10;9.53;;;2.80;99.90;;;;;;5056985;28;20462;-71
2024/03/02 04:47:06;;;;;;;22.87;12.07;;;2.70;99.90;;;;;;5049506;28;20554;-72
2024/03/02 04:49:34;;;;;;;24.27;11.83;;;2.80;99.90;;;;;;5049520;28;20932;-71
2024/03/02 04:52:02;;;;;;;27.07;13.87;;;2.90;99.90;;;;;;5051103;28;20859;-72
2024/03/02 04:54:31;;;;;;;24.33;11.23;;;3.10;99.90;;;;;;5051404;28;21260;-72
2024/03/02 04:56:59;;;;;;;20.90;10.87;;;3.00;99.90;;;;;;5049465;28;20473;-73
2024/03/02 04:59:27;;;;;;;27.13;11.90;;;2.90;99.90;;;;;;5061112;28;20483;-72
2024/03/02 05:01:55;;;;;;;26.93;12.10;;;2.80;99.90;;;;;;5069375;28;20607;-72
2024/03/02 05:04:23;;;;;;;25.87;11.70;;;2.80;99.90;;;;;;5069070;28;20443;-71
2024/03/02 05:06:52;;;;;;;24.43;12.00;;;2.80;99.90;;;;;;5064808;28;20483;-72
2024/03/02 05:09:21;;;;;;;23.00;11.23;;;2.80;99.90;;;;;;5049134;28;20448;-72
2024/03/02 05:14:37;;;;;;;24.30;12.07;;;2.70;99.90;;;;;;5053286;28;20462;-71
2024/03/02 05:17:05;;;;;;;22.30;10.33;;;2.80;99.90;;;;;;5069523;28;20469;-72
2024/03/02 05:19:32;;;;;;;23.07;11.20;;;2.70;99.90;;;;;;5068914;28;20558;-72
2024/03/02 05:22:00;;;;;;;27.33;10.97;;;2.60;99.90;;;;;;5069035;28;21186;-72
2024/03/02 05:24:28;;;;;;;23.27;10.97;;;2.50;99.90;;;;;;5068681;28;20454;-72
2024/03/02 05:26:58;;;;;;;21.53;10.60;;;2.40;99.90;;;;;;5068722;28;20478;-72
2024/03/02 05:29:26;;;;;;;21.43;11.60;;;2.40;99.90;;;;;;5068462;28;20482;-72
2024/03/02 05:31:53;;;;;;;24.13;10.57;;;2.40;99.90;;;;;;5068148;28;20505;-72
2024/03/02 05:34:21;;;;;;;23.37;10.90;;;2.30;99.90;;;;;;5062049;28;20946;-72
2024/03/02 05:36:49;;;;;;;20.43;11.87;;;2.30;99.90;;;;;;5048456;28;20448;-72
2024/03/02 05:39:17;;;;;;;26.40;12.97;;;2.50;99.90;;;;;;5053013;28;20552;-72
2024/03/02 05:41:45;;;;;;;24.50;13.50;;;2.50;99.90;;;;;;5067213;28;20451;-72
2024/03/02 05:44:15;;;;;;;23.50;13.93;;;2.50;99.90;;;;;;5068585;28;20508;-72
2024/03/02 05:46:43;;;;;;;26.90;13.33;;;2.50;99.90;;;;;;5067852;28;20451;-72
2024/03/02 05:49:11;;;;;;;24.00;12.00;;;2.60;99.90;;;;;;5066030;28;20447;-73
2024/03/02 05:51:39;;;;;;;24.80;11.47;;;2.70;99.90;;;;;;5067942;28;20434;-72
2024/03/02 05:54:07;;;;;;;27.60;12.20;;;2.70;99.90;;;;;;5068488;28;20513;-72
2024/03/02 05:56:35;;;;;;;26.07;11.00;;;2.70;99.90;;;;;;5068168;28;20454;-72
2024/03/02 05:59:12;;;;;;;20.80;11.10;;;2.60;99.90;;;;;;5068029;28;20479;-72
2024/03/02 06:01:42;;;;;;;22.60;11.90;;;2.40;99.90;;;;;;5056675;28;21060;-72
2024/03/02 06:04:11;;;;;;;22.43;11.57;;;2.40;99.90;;;;;;5059774;28;20446;-72
2024/03/02 06:06:39;;;;;;;24.10;11.13;;;2.40;99.90;;;;;;5067880;28;20516;-72
2024/03/02 06:09:08;;;;;;;27.30;12.03;;;2.40;99.90;;;;;;5067661;28;20446;-72
2024/03/02 06:11:36;;;;;;;25.17;12.97;;;2.40;99.90;;;;;;5067442;28;20945;-72
2024/03/02 06:14:04;;;;;;;23.57;11.30;;;2.50;99.90;;;;;;5067927;28;20525;-72
2024/03/02 06:16:32;;;;;;;21.70;11.50;;;2.50;99.90;;;;;;5067362;28;20459;-72
2024/03/02 06:19:02;;;;;;;24.67;12.10;;;2.50;99.90;;;;;;5061456;28;20477;-72
2024/03/02 06:21:30;;;;;;;24.47;10.57;;;2.50;99.90;;;;;;5067368;28;20450;-72
2024/03/02 06:23:58;;;;;;;23.77;12.07;;;2.40;99.90;;;;;;5067559;28;20455;-72
2024/03/02 06:26:26;;;;;;;25.30;12.33;;;2.40;99.90;;;;;;5067462;28;20533;-71
2024/03/02 06:28:54;;;;;;;26.57;12.20;;;2.40;99.90;;;;;;5067094;28;20924;-72
2024/03/02 06:31:22;;;;;;;27.70;14.03;;;2.40;99.90;;;;;;5058843;28;20940;-71
2024/03/02 06:33:50;;;;;;;26.77;12.60;;;2.50;99.90;;;;;;5059738;28;20479;-72
2024/03/02 06:36:20;;;;;;;28.30;14.07;;;2.60;99.90;;;;;;5067623;28;20917;-72
2024/03/02 06:38:48;;;;;;;31.17;13.90;;;2.60;99.90;;;;;;5067522;28;20987;-72
2024/03/02 06:41:16;;;;;;;28.47;13.47;;;2.70;99.90;;;;;;5066936;28;21069;-72
2024/03/02 06:43:43;;;;;;;27.57;14.40;;;2.80;99.90;;;;;;5066720;28;20447;-72
2024/03/02 06:46:14;;;;;;;29.80;14.83;;;2.90;99.90;;;;;;5052583;28;20500;-72
2024/03/02 06:48:42;;;;;;;33.60;14.70;;;3.00;99.90;;;;;;5064214;28;20517;-72
2024/03/02 06:51:10;;;;;;;23.57;14.20;;;3.10;99.90;;;;;;5052151;28;20463;-72
2024/03/02 06:53:40;;;;;;;27.67;13.77;;;3.10;99.90;;;;;;5063872;28;20455;-73
2024/03/02 06:56:09;;;;;;;27.33;12.93;;;3.20;99.90;;;;;;5066887;28;20460;-71
2024/03/02 06:58:37;;;;;;;30.93;13.83;;;3.30;99.90;;;;;;5056197;28;20547;-71
2024/03/02 07:01:05;;;;;;;32.30;14.23;;;3.30;99.90;;;;;;5046625;28;20531;-70
2024/03/02 07:03:33;;;;;;;30.10;14.10;;;3.50;99.90;;;;;;5046662;28;20954;-71
2024/03/02 07:06:01;;;;;;;24.70;13.70;;;3.70;99.90;;;;;;5047958;28;21177;-71
2024/03/02 07:08:29;;;;;;;27.70;13.90;;;3.90;99.90;;;;;;5046390;28;20475;-71
2024/03/02 07:10:59;;;;;;;26.50;14.33;;;4.00;99.90;;;;;;5046841;28;20482;-71
2024/03/02 07:13:27;;;;;;;26.30;14.00;;;4.10;99.90;;;;;;5066374;28;20457;-72
2024/03/02 07:16:22;;;;;;;27.90;14.57;;;4.30;99.90;;;;;;5066402;28;21137;-72
2024/03/02 07:18:51;;;;;;;26.10;14.17;;;4.30;99.90;;;;;;5066402;28;20456;-71
2024/03/02 07:21:22;;;;;;;28.20;14.03;;;4.50;99.90;;;;;;5058499;28;20505;-71
2024/03/02 07:23:50;;;;;;;28.87;14.80;;;4.60;99.90;;;;;;5046535;28;20491;-71
2024/03/02 07:26:20;;;;;;;27.63;13.57;;;4.80;99.90;;;;;;5050428;28;20462;-71
2024/03/02 07:28:51;;;;;;;21.83;13.47;;;5.00;99.90;;;;;;4976155;28;20466;-72
2024/03/02 07:31:19;;;;;;;30.70;13.83;;;5.20;99.90;;;;;;4984204;28;20477;-71
2024/03/02 07:33:47;;;;;;;22.33;11.63;;;5.20;99.90;;;;;;4984819;28;20497;-71
2024/03/02 07:36:16;;;;;;;22.87;13.13;;;5.40;99.90;;;;;;4984559;28;20798;-72
2024/03/02 07:38:44;;;;;;;27.13;13.37;;;5.60;99.90;;;;;;4984638;28;20963;-71
2024/03/02 07:41:13;;;;;;;22.73;11.10;;;5.70;99.90;;;;;;4983949;28;20575;-72
2024/03/02 07:43:42;;;;;;;23.03;12.20;;;5.90;99.90;;;;;;4985011;28;20451;-72
2024/03/02 07:46:10;;;;;;;24.17;12.00;;;6.10;99.90;;;;;;4994558;28;20845;-72
2024/03/02 07:48:38;;;;;;;22.47;12.57;;;6.30;99.90;;;;;;5066392;28;21043;-70
2024/03/02 07:51:06;;;;;;;21.43;11.67;;;6.50;99.90;;;;;;5066486;28;20972;-70
2024/03/02 07:53:36;;;;;;;20.17;12.10;;;6.60;99.90;;;;;;5066099;28;20888;-71
2024/03/02 07:56:05;;;;;;;17.83;9.90;;;6.70;99.90;;;;;;5066431;28;20447;-70
2024/03/02 07:58:35;;;;;;;17.33;9.47;;;6.80;99.90;;;;;;5064781;28;21116;-71
2024/03/02 08:01:05;;;;;;;18.90;9.80;;;6.80;99.90;;;;;;5046769;28;21059;-71
2024/03/02 08:03:34;;;;;;;15.90;8.43;;;6.80;99.90;;;;;;5046265;28;20480;-71
2024/03/02 08:06:02;;;;;;;18.23;9.60;;;6.80;99.90;;;;;;5046246;28;20450;-72
2024/03/02 08:08:30;;;;;;;18.13;9.87;;;6.90;99.90;;;;;;5049586;28;20547;-70
2024/03/02 08:10:58;;;;;;;16.97;9.97;;;6.90;99.90;;;;;;5066403;28;20476;-70
2024/03/02 08:13:28;;;;;;;17.13;9.47;;;7.10;99.90;;;;;;5064564;28;20441;-71
2024/03/02 08:15:56;;;;;;;22.87;10.43;;;7.00;99.90;;;;;;5070443;28;20457;-71
2024/03/02 08:18:26;;;;;;;16.20;8.67;;;7.00;99.90;;;;;;5069887;28;20474;-71
2024/03/02 08:20:54;;;;;;;15.63;8.83;;;7.00;99.90;;;;;;5066514;28;20482;-70
2024/03/02 08:23:22;;;;;;;17.90;8.63;;;6.90;99.90;;;;;;5069674;28;20476;-70
2024/03/02 08:25:50;;;;;;;17.00;8.70;;;7.00;99.90;;;;;;5058967;28;20570;-70
2024/03/02 08:28:19;;;;;;;16.60;8.67;;;7.00;99.90;;;;;;5050179;28;20530;-70
2024/03/02 08:30:47;;;;;;;14.73;7.60;;;7.10;99.90;;;;;;5050141;28;20444;-70
2024/03/02 08:33:16;;;;;;;14.40;8.20;;;7.10;99.90;;;;;;5065006;28;20490;-71
2024/03/02 08:35:46;;;;;;;15.17;8.13;;;7.10;99.90;;;;;;5069468;28;20534;-69
2024/03/02 08:38:14;;;;;;;15.60;7.80;;;7.00;99.90;;;;;;5069886;28;20463;-70
2024/03/02 08:40:42;;;;;;;16.10;8.70;;;7.00;99.90;;;;;;5070568;28;20468;-70
2024/03/02 08:43:10;;;;;;;17.40;7.90;;;7.20;99.90;;;;;;5072664;28;20926;-70
2024/03/02 08:45:39;;;;;;;14.07;7.63;;;7.40;99.90;;;;;;5071272;28;20450;-71
2024/03/02 08:48:08;;;;;;;15.30;8.13;;;7.50;99.90;;;;;;5070663;28;20902;-70
2024/03/02 08:50:35;;;;;;;13.57;7.30;;;7.80;99.90;;;;;;5052534;28;20842;-70
2024/03/02 08:53:05;;;;;;;14.20;6.80;;;7.90;99.90;;;;;;5050082;28;20810;-70
2024/03/02 08:55:33;;;;;;;15.70;7.70;;;8.00;99.90;;;;;;5049830;28;20451;-70
2024/03/02 08:58:01;;;;;;;15.00;7.23;;;8.30;99.90;;;;;;5056342;28;21083;-70
2024/03/02 09:00:29;;;;;;;15.13;7.33;;;8.70;99.90;;;;;;5048899;28;20451;-69
2024/03/02 09:02:57;;;;;;;14.00;7.40;;;8.90;99.90;;;;;;5049130;28;20457;-70
2024/03/02 09:05:25;;;;;;;13.63;6.10;;;9.10;99.90;;;;;;5061869;28;20451;-70
2024/03/02 09:07:53;;;;;;;11.87;5.77;;;9.40;99.90;;;;;;5069307;28;20478;-71
2024/03/02 09:10:22;;;;;;;12.00;5.37;;;9.60;99.90;;;;;;5069385;28;20560;-69
2024/03/02 09:12:53;;;;;;;12.00;6.27;;;9.90;99.90;;;;;;5069134;28;20452;-69
2024/03/02 09:15:21;;;;;;;11.37;5.17;;;10.30;99.90;;;;;;5069412;28;20455;-70
2024/03/02 09:17:49;;;;;;;11.30;5.10;;;10.60;99.90;;;;;;5068598;28;20493;-70
2024/03/02 09:20:17;;;;;;;12.27;5.47;;;10.80;99.90;;;;;;5068932;28;20458;-69
2024/03/02 09:22:47;;;;;;;11.03;5.50;;;11.00;99.90;;;;;;5056942;28;20515;-69
2024/03/02 09:25:15;;;;;;;10.23;4.87;;;11.30;99.90;;;;;;5052894;28;20446;-67
2024/03/02 09:27:45;;;;;;;12.33;6.30;;;11.50;99.90;;;;;;5060479;28;21026;-69
2024/03/02 09:30:14;;;;;;;10.27;4.90;;;11.70;99.90;;;;;;5053937;28;20937;-68
2024/03/02 09:32:42;;;;;;;11.20;4.90;;;11.90;99.90;;;;;;5048639;28;20443;-72
2024/03/02 09:35:11;;;;;;;9.37;3.93;;;12.10;99.90;;;;;;5047976;28;20597;-69
2024/03/02 09:37:39;;;;;;;9.73;3.90;;;12.20;99.90;;;;;;5055042;28;20593;-69
2024/03/02 09:40:08;;;;;;;8.83;3.63;;;12.00;99.90;;;;;;5065001;28;20453;-69
2024/03/02 09:42:37;;;;;;;10.70;3.97;;;12.00;99.90;;;;;;5066268;28;20498;-70
2024/03/02 09:45:07;;;;;;;9.80;4.33;;;12.30;99.90;;;;;;5059504;28;20443;-68
2024/03/02 09:47:35;;;;;;;12.97;4.00;;;12.50;99.90;;;;;;5057765;28;20512;-69
2024/03/02 09:50:03;;;;;;;9.73;4.00;;;12.80;99.30;;;;;;5066115;28;20461;-70
2024/03/02 09:52:32;;;;;;;9.90;3.80;;;13.10;97.60;;;;;;5063590;28;20461;-71
2024/03/02 09:55:00;;;;;;;9.00;3.97;;;13.50;96.40;;;;;;5057614;28;20455;-71
2024/03/02 09:57:28;;;;;;;9.67;3.80;;;13.80;93.30;;;;;;5065154;28;20894;-71
2024/03/02 09:59:56;;;;;;;8.97;3.50;;;14.20;92.60;;;;;;5060379;28;20481;-71
2024/03/02 10:02:26;;;;;;;8.23;3.00;;;14.30;92.50;;;;;;5055186;28;21194;-72
2024/03/02 10:04:53;;;;;;;8.70;3.37;;;14.40;91.10;;;;;;5060173;28;20446;-72
2024/03/02 10:07:21;;;;;;;8.70;3.10;;;14.60;90.70;;;;;;5061522;28;20524;-68
2024/03/02 10:09:51;;;;;;;8.67;3.30;;;14.80;88.70;;;;;;5059102;28;20997;-71
2024/03/02 10:12:20;;;;;;;9.47;3.80;;;15.00;87.00;;;;;;5051134;28;20526;-69
2024/03/02 10:14:48;;;;;;;8.87;3.83;;;15.30;83.80;;;;;;5066091;28;20452;-69
2024/03/02 10:17:18;;;;;;;9.83;5.23;;;15.70;83.90;;;;;;5065771;28;20467;-70
2024/03/02 10:19:47;;;;;;;9.10;3.30;;;15.90;81.80;;;;;;5053406;28;21171;-69
2024/03/02 10:22:15;;;;;;;9.27;3.43;;;16.20;78.20;;;;;;5044946;28;20587;-70
2024/03/02 10:24:45;;;;;;;8.60;3.50;;;16.50;76.30;;;;;;5063625;28;20798;-71
2024/03/02 10:27:21;;;;;;;8.00;3.00;;;16.80;76.00;;;;;;5053491;28;20540;-69
2024/03/02 10:29:49;;;;;;;8.67;3.10;;;17.10;74.20;;;;;;5062967;28;21470;-69
2024/03/02 10:32:18;;;;;;;8.60;3.13;;;17.20;70.90;;;;;;5054600;28;20975;-69
2024/03/02 10:34:48;;;;;;;7.90;2.63;;;17.60;70.40;;;;;;5047369;28;20486;-70
2024/03/02 10:37:17;;;;;;;9.17;3.57;;;17.80;67.80;;;;;;5046558;28;20476;-70
2024/03/02 10:39:47;;;;;;;11.90;2.90;;;17.70;67.90;;;;;;5048264;28;20441;-70
2024/03/02 10:42:16;;;;;;;9.03;3.20;;;18.00;64.70;;;;;;5053732;28;20483;-71
2024/03/02 10:44:44;;;;;;;8.03;2.80;;;18.40;64.30;;;;;;5057982;28;20439;-70
2024/03/02 10:47:14;;;;;;;9.43;2.83;;;18.70;62.50;;;;;;5057572;28;20458;-70
2024/03/02 10:49:43;;;;;;;9.10;2.70;;;18.90;62.30;;;;;;5048406;28;20518;-72
2024/03/02 10:52:13;;;;;;;7.60;2.40;;;19.00;59.30;;;;;;5047049;28;20531;-70
2024/03/02 10:54:41;;;;;;;9.00;2.37;;;19.20;59.90;;;;;;5055911;28;20450;-71
2024/03/02 10:57:11;;;;;;;8.23;2.57;;;19.50;57.60;;;;;;5065772;28;20447;-70
2024/03/02 10:59:52;;;;;;;8.10;2.63;;;19.90;57.80;;;;;;5065197;28;20438;-72
2024/03/02 11:02:23;;;;;;;8.10;2.83;;;20.10;57.20;;;;;;5056653;28;20475;-71
2024/03/02 11:04:56;;;;;;;9.33;2.43;;;20.50;55.20;;;;;;5053946;28;20460;-70
2024/03/02 11:07:27;;;;;;;8.10;2.60;;;20.70;54.60;;;;;;5047946;28;20487;-72
2024/03/02 11:10:00;;;;;;;7.40;2.50;;;20.90;54.40;;;;;;5057117;28;20819;-71
2024/03/02 11:12:32;;;;;;;7.63;2.33;;;21.10;52.60;;;;;;5047876;28;20493;-72
2024/03/02 11:15:01;;;;;;;7.60;2.40;;;21.40;53.50;;;;;;5051613;28;20444;-72
2024/03/02 11:17:30;;;;;;;8.60;2.53;;;21.80;51.20;;;;;;5048388;28;20927;-71
2024/03/02 11:19:58;;;;;;;8.30;2.90;;;21.90;51.70;;;;;;5056164;28;20448;-71
2024/03/02 11:22:28;;;;;;;7.90;2.33;;;22.00;50.20;;;;;;5047775;28;20774;-71
2024/03/02 11:24:56;;;;;;;7.70;2.33;;;22.10;50.50;;;;;;5048721;28;20546;-72
2024/03/02 11:28:02;;;;;;;8.03;2.67;;;22.40;51.20;;;;;;5049337;28;20458;-71
2024/03/02 11:30:49;;;;;;;8.13;2.30;;;22.10;50.70;;;;;;5033647;28;20452;-72
2024/03/02 11:33:27;;;;;;;8.00;2.60;;;22.20;50.70;;;;;;5048566;28;20526;-71
2024/03/02 11:35:57;;;;;;;7.60;2.50;;;22.40;49.50;;;;;;5055013;28;20447;-72
2024/03/02 11:38:32;;;;;;;7.53;2.30;;;22.20;50.50;;;;;;5061705;28;20486;-72
2024/03/02 11:41:01;;;;;;;7.30;2.27;;;22.70;49.50;;;;;;5060109;28;20450;-72
2024/03/02 11:43:29;;;;;;;8.50;2.17;;;22.90;49.00;;;;;;5058626;28;20487;-63
2024/03/02 11:45:59;;;;;;;7.90;2.23;;;23.30;49.60;;;;;;5059138;28;20449;-67
2024/03/02 11:48:27;;;;;;;7.50;2.00;;;23.70;48.70;;;;;;5052363;28;20451;-65
2024/03/02 11:50:59;;;;;;;7.40;1.80;;;24.20;48.00;;;;;;5060571;28;20459;-67
2024/03/02 11:53:31;;;;;;;8.23;2.27;;;24.40;46.20;;;;;;5061219;28;21129;-62
2024/03/02 11:56:03;;;;;;;7.20;2.00;;;24.40;46.50;;;;;;5065352;28;20447;-66
2024/03/02 11:58:31;;;;;;;8.63;2.20;;;24.70;46.50;;;;;;5056159;28;20455;-65
2024/03/02 12:00:59;;;;;;;7.20;1.80;;;25.00;45.60;;;;;;5064229;28;20818;-65
2024/03/02 12:03:27;;;;;;;8.30;2.33;;;24.70;45.40;;;;;;5066839;28;20466;-66
2024/03/02 12:05:55;;;;;;;7.90;2.37;;;24.20;46.00;;;;;;5064459;28;20949;-65
2024/03/02 12:08:24;;;;;;;7.67;1.97;;;24.10;45.70;;;;;;5067139;28;20463;-64
2024/03/02 12:11:00;;;;;;;8.37;1.90;;;23.40;45.90;;;;;;5066920;28;20463;-65
2024/03/02 12:13:29;;;;;;;7.20;2.00;;;22.90;46.20;;;;;;5066434;28;20438;-65
2024/03/02 12:15:57;;;;;;;8.07;2.30;;;22.80;45.90;;;;;;5067644;28;20451;-66
2024/03/02 12:18:25;;;;;;;8.33;1.73;;;22.60;47.00;;;;;;5064781;28;20513;-67
2024/03/02 12:20:57;;;;;;;7.83;1.33;;;22.80;47.90;;;;;;5066784;28;20443;-65
2024/03/02 12:23:26;;;;;;;7.57;1.67;;;23.20;46.90;;;;;;5065843;28;20524;-67
2024/03/02 12:25:54;;;;;;;7.30;1.50;;;23.40;45.50;;;;;;5066973;28;21237;-66
2024/03/02 12:28:23;;;;;;;8.80;1.47;;;23.90;46.00;;;;;;5067160;28;20924;-65
2024/03/02 12:30:51;;;;;;;6.60;1.37;;;24.60;45.70;;;;;;5066222;28;20814;-68
2024/03/02 12:33:20;;;;;;;7.10;1.30;;;25.40;44.20;;;;;;5064975;28;20447;-69
2024/03/02 12:35:50;;;;;;;6.67;1.20;;;25.80;43.20;;;;;;5066712;28;20542;-67
2024/03/02 12:38:19;;;;;;;6.97;1.33;;;26.20;42.50;;;;;;5066245;28;20538;-67
2024/03/02 12:40:49;;;;;;;6.80;1.43;;;26.80;41.00;;;;;;5066324;28;20450;-65
2024/03/02 12:43:16;;;;;;;7.00;1.50;;;27.70;42.20;;;;;;5059972;28;20557;-64
2024/03/02 12:45:46;;;;;;;7.10;1.27;;;28.10;39.60;;;;;;5065495;28;20910;-65
2024/03/02 12:48:15;;;;;;;6.67;1.17;;;28.30;39.70;;;;;;5066053;28;20959;-64
2024/03/02 12:50:44;;;;;;;6.80;1.30;;;28.50;39.00;;;;;;5058151;28;20807;-65
2024/03/02 12:53:16;;;;;;;6.60;1.20;;;28.70;38.50;;;;;;5064691;28;20436;-67